createdAt,value
2018-03-17T00:00:27.599Z,999.49
2018-03-17T00:01:27.572Z,999.49
2018-03-17T00:02:27.546Z,999.54
2018-03-17T00:03:27.523Z,999.48
2018-03-17T00:04:27.498Z,999.4
2018-03-17T00:05:27.471Z,999.5
2018-03-17T00:06:27.448Z,999.41
2018-03-17T00:07:27.422Z,999.39
2018-03-17T00:08:27.398Z,999.46
2018-03-17T00:09:27.374Z,999.46
2018-03-17T00:10:27.348Z,999.44
2018-03-17T00:11:27.323Z,999.42
2018-03-17T00:12:27.298Z,999.42
2018-03-17T00:13:27.271Z,999.35
2018-03-17T00:14:27.248Z,999.39
2018-03-17T00:15:27.224Z,999.35
2018-03-17T00:16:27.198Z,999.27
2018-03-17T00:17:27.182Z,999.3
2018-03-17T00:18:27.148Z,999.31
2018-03-17T00:19:27.125Z,999.33
2018-03-17T00:20:27.099Z,999.39
2018-03-17T00:21:27.075Z,999.4
2018-03-17T00:22:27.055Z,999.36
2018-03-17T00:23:27.025Z,999.32
2018-03-17T00:24:27.001Z,999.25
2018-03-17T00:25:26.974Z,999.31
2018-03-17T00:26:26.950Z,999.35
2018-03-17T00:27:26.926Z,999.36
2018-03-17T00:28:26.899Z,999.38
2018-03-17T00:29:26.880Z,999.33
2018-03-17T00:30:26.850Z,999.35
2018-03-17T00:31:26.828Z,999.36
2018-03-17T00:32:26.801Z,999.42
2018-03-17T00:33:26.774Z,999.42
2018-03-17T00:34:26.751Z,999.48
2018-03-17T00:35:26.726Z,999.35
2018-03-17T00:36:26.701Z,999.46
2018-03-17T00:37:26.677Z,999.34
2018-03-17T00:38:26.652Z,999.33
2018-03-17T00:39:26.629Z,999.29
2018-03-17T00:40:26.604Z,999.39
2018-03-17T00:41:26.578Z,999.35
2018-03-17T00:42:26.551Z,999.3
2018-03-17T00:43:26.524Z,999.34
2018-03-17T00:44:26.509Z,999.4
2018-03-17T00:45:26.477Z,999.33
2018-03-17T00:46:26.453Z,999.26
2018-03-17T00:47:26.434Z,999.23
2018-03-17T00:48:26.402Z,999.25
2018-03-17T00:49:26.377Z,999.14
2018-03-17T00:50:26.350Z,999.27
2018-03-17T00:51:26.328Z,999.3
2018-03-17T00:52:26.303Z,999.26
2018-03-17T00:53:26.276Z,999.26
2018-03-17T00:54:26.251Z,999.33
2018-03-17T00:55:26.227Z,999.35
2018-03-17T00:56:26.202Z,999.42
2018-03-17T00:57:26.205Z,999.39
2018-03-17T00:58:26.155Z,999.41
2018-03-17T00:59:26.130Z,999.39
2018-03-17T01:00:26.101Z,999.42
2018-03-17T01:01:26.076Z,999.39
2018-03-17T01:02:26.052Z,999.41
2018-03-17T01:03:26.030Z,999.32
2018-03-17T01:04:26.005Z,999.43
2018-03-17T01:05:25.977Z,999.52
2018-03-17T01:06:25.951Z,999.51
2018-03-17T01:07:25.924Z,999.44
2018-03-17T01:08:25.904Z,999.39
2018-03-17T01:09:25.876Z,999.48
2018-03-17T01:10:25.851Z,999.35
2018-03-17T01:11:25.825Z,999.42
2018-03-17T01:12:25.801Z,999.45
2018-03-17T01:13:25.776Z,999.4
2018-03-17T01:14:25.749Z,999.36
2018-03-17T01:15:25.724Z,999.4
2018-03-17T01:16:25.699Z,999.36
2018-03-17T01:17:25.675Z,999.32
2018-03-17T01:18:25.649Z,999.32
2018-03-17T01:19:25.625Z,999.26
2018-03-17T01:20:25.601Z,999.1
2018-03-17T01:21:25.576Z,999.37
2018-03-17T01:22:25.551Z,999.3
2018-03-17T01:23:25.524Z,999.3
2018-03-17T01:24:25.511Z,999.37
2018-03-17T01:25:25.476Z,999.4
2018-03-17T01:26:25.449Z,999.38
2018-03-17T01:27:25.424Z,999.42
2018-03-17T01:28:25.399Z,999.45
2018-03-17T01:29:25.373Z,999.4
2018-03-17T01:30:25.348Z,999.43
2018-03-17T01:31:25.324Z,999.53
2018-03-17T01:32:25.300Z,999.55
2018-03-17T01:33:25.273Z,999.48
2018-03-17T01:34:25.249Z,999.5
2018-03-17T01:35:25.233Z,999.5
2018-03-17T01:36:25.203Z,999.53
2018-03-17T01:37:25.173Z,999.52
2018-03-17T01:38:25.151Z,999.62
2018-03-17T01:39:25.129Z,999.52
2018-03-17T01:40:25.099Z,999.54
2018-03-17T01:41:25.075Z,999.52
2018-03-17T01:42:25.051Z,999.53
2018-03-17T01:43:25.022Z,999.52
2018-03-17T01:44:24.997Z,999.53
2018-03-17T01:45:24.974Z,999.47
2018-03-17T01:46:24.947Z,999.47
2018-03-17T01:47:24.923Z,999.53
2018-03-17T01:48:24.899Z,999.53
2018-03-17T01:49:25.083Z,999.6
2018-03-17T01:50:24.847Z,999.54
2018-03-17T01:51:24.823Z,999.64
2018-03-17T01:52:24.797Z,999.59
2018-03-17T01:53:24.771Z,999.6
2018-03-17T01:54:24.747Z,999.59
2018-03-17T01:55:24.723Z,999.65
2018-03-17T01:56:24.697Z,999.6
2018-03-17T01:57:24.671Z,999.66
2018-03-17T01:58:24.649Z,999.62
2018-03-17T01:59:24.621Z,999.62
2018-03-17T02:00:24.596Z,999.68
2018-03-17T02:01:24.572Z,999.66
2018-03-17T02:02:24.545Z,999.59
2018-03-17T02:03:24.522Z,999.54
2018-03-17T02:04:24.496Z,999.51
2018-03-17T02:05:24.472Z,999.65
2018-03-17T02:06:24.446Z,999.59
2018-03-17T02:07:24.422Z,999.58
2018-03-17T02:08:24.399Z,999.61
2018-03-17T02:09:24.371Z,999.59
2018-03-17T02:10:24.345Z,999.58
2018-03-17T02:11:24.321Z,999.56
2018-03-17T02:12:24.305Z,999.56
2018-03-17T02:13:24.270Z,999.56
2018-03-17T02:14:24.246Z,999.53
2018-03-17T02:15:24.221Z,999.54
2018-03-17T02:16:24.196Z,999.49
2018-03-17T02:17:24.169Z,999.53
2018-03-17T02:18:24.145Z,999.5
2018-03-17T02:19:24.121Z,999.48
2018-03-17T02:20:24.100Z,999.44
2018-03-17T02:21:24.069Z,999.4
2018-03-17T02:22:24.045Z,999.34
2018-03-17T02:23:24.024Z,999.32
2018-03-17T02:24:23.993Z,999.22
2018-03-17T02:25:23.969Z,999.34
2018-03-17T02:26:23.946Z,999.22
2018-03-17T02:27:23.920Z,999.2
2018-03-17T02:28:23.896Z,999.25
2018-03-17T02:29:23.871Z,999.28
2018-03-17T02:30:23.846Z,999.15
2018-03-17T02:31:23.822Z,999.14
2018-03-17T02:32:23.796Z,999.15
2018-03-17T02:33:23.774Z,999.2
2018-03-17T02:34:23.749Z,999.11
2018-03-17T02:35:23.720Z,999.11
2018-03-17T02:36:23.695Z,999.03
2018-03-17T02:37:23.672Z,999.15
2018-03-17T02:38:23.646Z,999.12
2018-03-17T02:39:23.622Z,999.15
2018-03-17T02:40:23.597Z,999.06
2018-03-17T02:41:23.573Z,999.07
2018-03-17T02:42:23.544Z,999.12
2018-03-17T02:43:23.521Z,999.13
2018-03-17T02:44:23.496Z,999.11
2018-03-17T02:45:23.486Z,999.16
2018-03-17T02:46:23.451Z,998.96
2018-03-17T02:47:23.419Z,999.11
2018-03-17T02:48:23.403Z,999.07
2018-03-17T02:49:23.379Z,999.08
2018-03-17T02:50:23.347Z,999.08
2018-03-17T02:51:23.319Z,999.06
2018-03-17T02:52:23.293Z,999.11
2018-03-17T02:53:23.269Z,999.03
2018-03-17T02:54:23.248Z,999.03
2018-03-17T02:55:23.220Z,999.06
2018-03-17T02:56:23.193Z,999.03
2018-03-17T02:57:23.168Z,999.08
2018-03-17T02:58:23.145Z,999.06
2018-03-17T02:59:23.119Z,999.1
2018-03-17T03:00:23.096Z,999.07
2018-03-17T03:01:23.071Z,999.04
2018-03-17T03:02:23.046Z,999.04
2018-03-17T03:03:23.019Z,999.04
2018-03-17T03:04:22.991Z,999.03
2018-03-17T03:05:22.967Z,999.02
2018-03-17T03:06:22.941Z,999.09
2018-03-17T03:07:22.917Z,999.04
2018-03-17T03:08:22.891Z,999.04
2018-03-17T03:09:22.867Z,999.05
2018-03-17T03:10:22.840Z,999.04
2018-03-17T03:11:22.815Z,998.94
2018-03-17T03:12:22.789Z,999
2018-03-17T03:13:22.787Z,999.07
2018-03-17T03:14:22.738Z,999.02
2018-03-17T03:15:22.712Z,999.01
2018-03-17T03:16:22.690Z,999.05
2018-03-17T03:17:22.663Z,999
2018-03-17T03:18:22.637Z,999.01
2018-03-17T03:19:22.611Z,999.04
2018-03-17T03:20:22.586Z,999.07
2018-03-17T03:21:22.560Z,999.06
2018-03-17T03:22:22.537Z,999.13
2018-03-17T03:23:22.507Z,999.04
2018-03-17T03:24:22.483Z,999.07
2018-03-17T03:25:22.458Z,999.02
2018-03-17T03:26:22.432Z,998.98
2018-03-17T03:27:22.408Z,998.98
2018-03-17T03:28:22.383Z,998.94
2018-03-17T03:29:22.356Z,998.97
2018-03-17T03:30:22.333Z,999.01
2018-03-17T03:31:22.306Z,999.05
2018-03-17T03:32:22.280Z,999.04
2018-03-17T03:33:22.253Z,999.06
2018-03-17T03:34:22.229Z,998.98
2018-03-17T03:35:22.201Z,998.99
2018-03-17T03:36:22.177Z,999
2018-03-17T03:37:22.152Z,998.98
2018-03-17T03:38:22.126Z,998.95
2018-03-17T03:39:22.102Z,998.99
2018-03-17T03:40:22.075Z,999.04
2018-03-17T03:41:22.053Z,998.99
2018-03-17T03:42:22.024Z,999.02
2018-03-17T03:43:21.998Z,998.99
2018-03-17T03:44:21.974Z,998.89
2018-03-17T03:45:21.950Z,999.05
2018-03-17T03:46:21.923Z,999.01
2018-03-17T03:47:21.898Z,999.02
2018-03-17T03:48:21.870Z,999.02
2018-03-17T03:49:22.048Z,999.08
2018-03-17T03:50:21.819Z,998.91
2018-03-17T03:51:21.795Z,998.99
2018-03-17T03:52:21.768Z,999.06
2018-03-17T03:53:21.747Z,999.05
2018-03-17T03:54:21.718Z,999.03
2018-03-17T03:55:21.693Z,998.91
2018-03-17T03:56:21.667Z,998.97
2018-03-17T03:57:21.641Z,999.05
2018-03-17T03:58:21.614Z,999.04
2018-03-17T03:59:21.589Z,999.05
2018-03-17T04:00:21.567Z,999.08
2018-03-17T04:01:21.539Z,998.96
2018-03-17T04:02:21.516Z,999.01
2018-03-17T04:03:21.487Z,999.11
2018-03-17T04:04:21.460Z,999.13
2018-03-17T04:05:21.436Z,999.19
2018-03-17T04:06:21.411Z,999.11
2018-03-17T04:07:21.384Z,999.12
2018-03-17T04:08:21.359Z,999.14
2018-03-17T04:09:21.335Z,999.13
2018-03-17T04:10:21.308Z,999.1
2018-03-17T04:11:21.282Z,999.16
2018-03-17T04:12:21.258Z,999.11
2018-03-17T04:13:21.232Z,999.07
2018-03-17T04:14:21.204Z,999.07
2018-03-17T04:15:21.179Z,999.14
2018-03-17T04:16:21.153Z,999.11
2018-03-17T04:17:21.129Z,999.13
2018-03-17T04:18:21.104Z,999.14
2018-03-17T04:19:21.077Z,999.17
2018-03-17T04:20:21.054Z,999.15
2018-03-17T04:21:21.023Z,999.19
2018-03-17T04:22:20.999Z,999.13
2018-03-17T04:23:20.974Z,999.12
2018-03-17T04:24:20.991Z,999.06
2018-03-17T04:25:20.920Z,999.2
2018-03-17T04:26:20.894Z,999.18
2018-03-17T04:27:20.870Z,999.17
2018-03-17T04:28:20.846Z,999.17
2018-03-17T04:29:20.817Z,999.25
2018-03-17T04:30:20.791Z,999.2
2018-03-17T04:31:20.765Z,999.15
2018-03-17T04:32:20.742Z,999.16
2018-03-17T04:33:20.712Z,999.23
2018-03-17T04:34:20.688Z,999.22
2018-03-17T04:35:20.662Z,999.25
2018-03-17T04:36:20.636Z,999.23
2018-03-17T04:37:20.609Z,999.21
2018-03-17T04:38:20.586Z,999.16
2018-03-17T04:39:20.557Z,999.2
2018-03-17T04:40:20.533Z,999.17
2018-03-17T04:41:20.508Z,999.22
2018-03-17T04:42:20.481Z,999.24
2018-03-17T04:43:20.453Z,999.13
2018-03-17T04:44:20.429Z,999.24
2018-03-17T04:45:20.404Z,999.24
2018-03-17T04:46:20.380Z,999.27
2018-03-17T04:47:20.397Z,999.3
2018-03-17T04:48:20.325Z,999.23
2018-03-17T04:49:20.300Z,999.12
2018-03-17T04:50:20.274Z,999.25
2018-03-17T04:51:20.297Z,999.28
2018-03-17T04:52:20.222Z,999.17
2018-03-17T04:53:20.197Z,999.16
2018-03-17T04:54:20.172Z,999.18
2018-03-17T04:55:20.144Z,999.16
2018-03-17T04:56:20.119Z,999.14
2018-03-17T04:57:20.092Z,999.17
2018-03-17T04:58:20.066Z,999.14
2018-03-17T04:59:20.040Z,999.19
2018-03-17T05:00:20.017Z,999.16
2018-03-17T05:01:19.988Z,999.22
2018-03-17T05:02:19.964Z,999.2
2018-03-17T05:03:19.937Z,999.18
2018-03-17T05:04:19.911Z,999.17
2018-03-17T05:05:19.883Z,999.15
2018-03-17T05:06:19.857Z,999.18
2018-03-17T05:07:19.838Z,999.16
2018-03-17T05:08:19.809Z,999.1
2018-03-17T05:09:19.781Z,999.11
2018-03-17T05:10:19.756Z,999.05
2018-03-17T05:11:19.728Z,999.12
2018-03-17T05:12:19.702Z,999.09
2018-03-17T05:13:19.676Z,999.06
2018-03-17T05:14:19.650Z,999.12
2018-03-17T05:15:19.648Z,999.05
2018-03-17T05:16:19.602Z,999.13
2018-03-17T05:17:19.571Z,999.07
2018-03-17T05:18:19.546Z,999.09
2018-03-17T05:19:19.520Z,999.02
2018-03-17T05:20:19.493Z,999.01
2018-03-17T05:21:19.468Z,999.05
2018-03-17T05:22:19.443Z,999
2018-03-17T05:23:19.416Z,998.96
2018-03-17T05:24:19.389Z,999.04
2018-03-17T05:25:19.364Z,999.09
2018-03-17T05:26:19.338Z,999.07
2018-03-17T05:27:19.312Z,999.14
2018-03-17T05:28:19.285Z,999.16
2018-03-17T05:29:19.290Z,999.18
2018-03-17T05:30:19.234Z,999.15
2018-03-17T05:31:19.206Z,999.2
2018-03-17T05:32:19.182Z,998.99
2018-03-17T05:33:19.209Z,999.12
2018-03-17T05:34:19.128Z,999.09
2018-03-17T05:35:19.102Z,999.03
2018-03-17T05:36:19.079Z,999.08
2018-03-17T05:37:19.052Z,999.09
2018-03-17T05:38:19.024Z,999.14
2018-03-17T05:39:19.012Z,999.11
2018-03-17T05:40:18.972Z,999.06
2018-03-17T05:41:18.947Z,999.14
2018-03-17T05:42:18.920Z,999.19
2018-03-17T05:43:18.909Z,999.06
2018-03-17T05:44:18.867Z,999.14
2018-03-17T05:45:18.841Z,999.11
2018-03-17T05:46:18.817Z,999.1
2018-03-17T05:47:18.790Z,999.04
2018-03-17T05:48:18.763Z,999.24
2018-03-17T05:49:18.938Z,999.21
2018-03-17T05:50:18.712Z,999.23
2018-03-17T05:51:18.685Z,999.13
2018-03-17T05:52:18.709Z,999.1
2018-03-17T05:53:18.633Z,999.12
2018-03-17T05:54:18.611Z,999.18
2018-03-17T05:55:18.580Z,999.15
2018-03-17T05:56:18.554Z,999.05
2018-03-17T05:57:18.529Z,999.13
2018-03-17T05:58:18.502Z,999.11
2018-03-17T05:59:18.476Z,999.11
2018-03-17T06:00:18.449Z,999
2018-03-17T06:01:18.424Z,999.04
2018-03-17T06:02:18.398Z,999.09
2018-03-17T06:03:18.370Z,999.15
2018-03-17T06:04:18.396Z,999.18
2018-03-17T06:05:18.318Z,999.07
2018-03-17T06:06:18.292Z,999.04
2018-03-17T06:07:18.265Z,999.05
2018-03-17T06:08:18.242Z,999.09
2018-03-17T06:09:18.214Z,999.16
2018-03-17T06:10:18.194Z,998.99
2018-03-17T06:11:18.163Z,999.06
2018-03-17T06:12:18.136Z,999.04
2018-03-17T06:13:18.109Z,999.12
2018-03-17T06:14:18.083Z,999.06
2018-03-17T06:15:18.056Z,999.08
2018-03-17T06:16:18.031Z,999.12
2018-03-17T06:17:18.003Z,999.04
2018-03-17T06:18:17.978Z,999.02
2018-03-17T06:19:17.949Z,999.1
2018-03-17T06:20:17.925Z,999.08
2018-03-17T06:21:17.901Z,999.12
2018-03-17T06:22:17.874Z,999.13
2018-03-17T06:23:17.847Z,999.01
2018-03-17T06:24:17.824Z,999.08
2018-03-17T06:25:17.850Z,999.16
2018-03-17T06:26:17.769Z,999.19
2018-03-17T06:27:17.742Z,999.08
2018-03-17T06:28:17.716Z,999.14
2018-03-17T06:29:17.690Z,999.09
2018-03-17T06:30:17.663Z,999.24
2018-03-17T06:31:17.640Z,999.12
2018-03-17T06:32:17.614Z,999.12
2018-03-17T06:33:17.585Z,999.15
2018-03-17T06:34:17.576Z,999.18
2018-03-17T06:35:17.533Z,999.2
2018-03-17T06:36:17.510Z,999.13
2018-03-17T06:37:17.480Z,999.16
2018-03-17T06:38:17.457Z,999.1
2018-03-17T06:39:17.434Z,999.14
2018-03-17T06:40:17.403Z,999.16
2018-03-17T06:41:17.377Z,999.2
2018-03-17T06:42:17.353Z,999.26
2018-03-17T06:43:17.333Z,999.24
2018-03-17T06:44:17.298Z,999.16
2018-03-17T06:45:17.275Z,999.19
2018-03-17T06:46:17.246Z,999.25
2018-03-17T06:47:17.221Z,999.29
2018-03-17T06:48:17.194Z,999.17
2018-03-17T06:49:17.168Z,999.12
2018-03-17T06:50:17.144Z,999.21
2018-03-17T06:51:17.116Z,999.24
2018-03-17T06:52:17.091Z,999.24
2018-03-17T06:53:17.065Z,999.28
2018-03-17T06:54:17.038Z,999.26
2018-03-17T06:55:17.115Z,999.29
2018-03-17T06:56:16.984Z,999.39
2018-03-17T06:57:16.959Z,999.38
2018-03-17T06:58:16.931Z,999.37
2018-03-17T06:59:16.907Z,999.4
2018-03-17T07:00:16.880Z,999.3
2018-03-17T07:01:16.857Z,999.45
2018-03-17T07:02:16.828Z,999.4
2018-03-17T07:03:16.820Z,999.36
2018-03-17T07:04:16.821Z,999.17
2018-03-17T07:05:16.772Z,999.26
2018-03-17T07:06:16.725Z,999.32
2018-03-17T07:07:16.700Z,999.35
2018-03-17T07:08:16.672Z,999.32
2018-03-17T07:09:16.646Z,999.3
2018-03-17T07:10:16.626Z,999.25
2018-03-17T07:11:16.600Z,999.35
2018-03-17T07:12:16.579Z,999.4
2018-03-17T07:13:16.543Z,999.3
2018-03-17T07:14:16.517Z,999.37
2018-03-17T07:15:16.489Z,999.39
2018-03-17T07:16:16.463Z,999.37
2018-03-17T07:17:16.437Z,999.37
2018-03-17T07:18:16.412Z,999.39
2018-03-17T07:19:16.387Z,999.28
2018-03-17T07:20:16.364Z,999.41
2018-03-17T07:21:16.333Z,999.46
2018-03-17T07:22:16.307Z,999.39
2018-03-17T07:23:16.283Z,999.43
2018-03-17T07:24:16.254Z,999.45
2018-03-17T07:25:16.268Z,999.31
2018-03-17T07:26:16.203Z,999.4
2018-03-17T07:27:16.177Z,999.48
2018-03-17T07:28:16.152Z,999.45
2018-03-17T07:29:16.123Z,999.47
2018-03-17T07:30:16.099Z,999.34
2018-03-17T07:31:16.073Z,999.51
2018-03-17T07:32:16.047Z,999.46
2018-03-17T07:33:16.022Z,999.47
2018-03-17T07:34:15.997Z,999.44
2018-03-17T07:35:15.968Z,999.49
2018-03-17T07:36:15.942Z,999.36
2018-03-17T07:37:15.915Z,999.49
2018-03-17T07:38:15.890Z,999.48
2018-03-17T07:39:15.866Z,999.36
2018-03-17T07:40:15.838Z,999.44
2018-03-17T07:41:15.812Z,999.5
2018-03-17T07:42:15.785Z,999.38
2018-03-17T07:43:15.760Z,999.46
2018-03-17T07:44:15.733Z,999.6
2018-03-17T07:45:15.709Z,999.51
2018-03-17T07:46:15.680Z,999.46
2018-03-17T07:47:15.657Z,999.59
2018-03-17T07:48:15.630Z,999.58
2018-03-17T07:49:15.804Z,999.54
2018-03-17T07:50:15.576Z,999.61
2018-03-17T07:51:15.560Z,999.58
2018-03-17T07:52:15.523Z,999.48
2018-03-17T07:53:15.497Z,999.56
2018-03-17T07:54:15.470Z,999.61
2018-03-17T07:55:15.451Z,999.65
2018-03-17T07:56:15.420Z,999.61
2018-03-17T07:57:15.424Z,999.62
2018-03-17T07:58:15.368Z,999.71
2018-03-17T07:59:15.342Z,999.7
2018-03-17T08:00:15.317Z,999.69
2018-03-17T08:01:15.289Z,999.65
2018-03-17T08:02:15.265Z,999.61
2018-03-17T08:03:15.235Z,999.53
2018-03-17T08:04:15.210Z,999.52
2018-03-17T08:05:15.185Z,999.47
2018-03-17T08:06:15.157Z,999.47
2018-03-17T08:07:15.132Z,999.39
2018-03-17T08:08:15.105Z,999.41
2018-03-17T08:09:15.080Z,999.42
2018-03-17T08:10:15.054Z,999.33
2018-03-17T08:11:15.032Z,999.37
2018-03-17T08:12:15.004Z,999.4
2018-03-17T08:13:14.980Z,999.48
2018-03-17T08:14:14.950Z,999.43
2018-03-17T08:15:14.924Z,999.48
2018-03-17T08:16:14.906Z,999.52
2018-03-17T08:17:14.873Z,999.55
2018-03-17T08:18:14.847Z,999.57
2018-03-17T08:19:14.823Z,999.59
2018-03-17T08:20:14.793Z,999.59
2018-03-17T08:21:14.768Z,999.51
2018-03-17T08:22:14.743Z,999.46
2018-03-17T08:23:14.720Z,999.54
2018-03-17T08:24:14.691Z,999.52
2018-03-17T08:25:14.666Z,999.51
2018-03-17T08:26:14.637Z,999.5
2018-03-17T08:27:14.616Z,999.54
2018-03-17T08:28:14.587Z,999.43
2018-03-17T08:29:14.561Z,999.47
2018-03-17T08:30:14.535Z,999.5
2018-03-17T08:31:14.510Z,999.5
2018-03-17T08:32:14.485Z,999.42
2018-03-17T08:33:14.458Z,999.51
2018-03-17T08:34:14.432Z,999.45
2018-03-17T08:35:14.405Z,999.47
2018-03-17T08:36:14.381Z,999.46
2018-03-17T08:37:14.356Z,999.52
2018-03-17T08:38:14.330Z,999.53
2018-03-17T08:39:14.310Z,999.51
2018-03-17T08:40:14.279Z,999.48
2018-03-17T08:41:14.251Z,999.55
2018-03-17T08:42:14.234Z,999.52
2018-03-17T08:43:14.203Z,999.52
2018-03-17T08:44:14.175Z,999.52
2018-03-17T08:45:14.151Z,999.59
2018-03-17T08:46:14.123Z,999.49
2018-03-17T08:47:14.098Z,999.54
2018-03-17T08:48:14.075Z,999.54
2018-03-17T08:49:14.047Z,999.52
2018-03-17T08:50:14.022Z,999.57
2018-03-17T08:51:13.995Z,999.5
2018-03-17T08:52:13.976Z,999.55
2018-03-17T08:53:13.947Z,999.5
2018-03-17T08:54:13.919Z,999.5
2018-03-17T08:55:13.894Z,999.49
2018-03-17T08:56:13.873Z,999.52
2018-03-17T08:57:13.843Z,999.33
2018-03-17T08:58:13.821Z,999.52
2018-03-17T08:59:13.790Z,999.45
2018-03-17T09:00:13.766Z,999.5
2018-03-17T09:01:13.743Z,999.44
2018-03-17T09:02:13.752Z,999.55
2018-03-17T09:03:13.690Z,999.4
2018-03-17T09:04:13.676Z,999.39
2018-03-17T09:05:13.640Z,999.45
2018-03-17T09:06:13.612Z,999.35
2018-03-17T09:07:13.586Z,999.37
2018-03-17T09:08:13.561Z,999.39
2018-03-17T09:09:13.537Z,999.47
2018-03-17T09:10:13.510Z,999.41
2018-03-17T09:11:13.484Z,999.43
2018-03-17T09:12:13.458Z,999.47
2018-03-17T09:13:13.435Z,999.44
2018-03-17T09:14:13.408Z,999.38
2018-03-17T09:15:13.384Z,999.35
2018-03-17T09:16:13.360Z,999.4
2018-03-17T09:17:13.333Z,999.32
2018-03-17T09:18:13.308Z,999.39
2018-03-17T09:19:13.282Z,999.33
2018-03-17T09:20:13.258Z,999.33
2018-03-17T09:21:13.230Z,999.35
2018-03-17T09:22:13.207Z,999.32
2018-03-17T09:23:13.179Z,999.27
2018-03-17T09:24:13.217Z,999.47
2018-03-17T09:25:13.128Z,999.4
2018-03-17T09:26:13.102Z,999.4
2018-03-17T09:27:13.077Z,999.41
2018-03-17T09:28:13.051Z,999.51
2018-03-17T09:29:13.026Z,999.46
2018-03-17T09:30:13.002Z,999.48
2018-03-17T09:31:12.977Z,999.5
2018-03-17T09:32:12.949Z,999.47
2018-03-17T09:33:12.929Z,999.47
2018-03-17T09:34:12.899Z,999.62
2018-03-17T09:35:12.874Z,999.58
2018-03-17T09:36:12.850Z,999.63
2018-03-17T09:37:12.825Z,999.62
2018-03-17T09:38:12.805Z,999.61
2018-03-17T09:39:12.777Z,999.61
2018-03-17T09:40:12.750Z,999.53
2018-03-17T09:41:12.726Z,999.56
2018-03-17T09:42:12.744Z,999.59
2018-03-17T09:43:12.675Z,999.57
2018-03-17T09:44:12.649Z,999.57
2018-03-17T09:45:12.626Z,999.52
2018-03-17T09:46:12.600Z,999.47
2018-03-17T09:47:12.581Z,999.56
2018-03-17T09:48:12.549Z,999.59
2018-03-17T09:49:12.524Z,999.54
2018-03-17T09:50:12.499Z,999.57
2018-03-17T09:51:12.472Z,999.6
2018-03-17T09:52:12.454Z,999.51
2018-03-17T09:53:12.425Z,999.56
2018-03-17T09:54:12.400Z,999.51
2018-03-17T09:55:12.375Z,999.54
2018-03-17T09:56:12.370Z,999.46
2018-03-17T09:57:12.322Z,999.54
2018-03-17T09:58:12.298Z,999.49
2018-03-17T09:59:12.275Z,999.48
2018-03-17T10:00:12.252Z,999.47
2018-03-17T10:01:12.221Z,999.45
2018-03-17T10:02:12.196Z,999.48
2018-03-17T10:03:12.174Z,999.5
2018-03-17T10:04:12.155Z,999.52
2018-03-17T10:05:12.123Z,999.43
2018-03-17T10:06:12.098Z,999.43
2018-03-17T10:07:12.075Z,999.31
2018-03-17T10:08:12.047Z,999.42
2018-03-17T10:09:12.021Z,999.41
2018-03-17T10:10:11.998Z,999.39
2018-03-17T10:11:11.973Z,999.4
2018-03-17T10:12:11.948Z,999.5
2018-03-17T10:13:11.922Z,999.36
2018-03-17T10:14:11.899Z,999.4
2018-03-17T10:15:11.875Z,999.48
2018-03-17T10:16:11.849Z,999.32
2018-03-17T10:17:11.822Z,999.43
2018-03-17T10:18:11.799Z,999.48
2018-03-17T10:19:11.770Z,999.42
2018-03-17T10:20:11.746Z,999.4
2018-03-17T10:21:11.723Z,999.47
2018-03-17T10:22:11.700Z,999.38
2018-03-17T10:23:11.673Z,999.46
2018-03-17T10:24:11.647Z,999.44
2018-03-17T10:25:11.630Z,999.51
2018-03-17T10:26:11.605Z,999.32
2018-03-17T10:27:11.576Z,999.43
2018-03-17T10:28:11.549Z,999.43
2018-03-17T10:29:11.524Z,999.47
2018-03-17T10:30:11.502Z,999.47
2018-03-17T10:31:11.475Z,999.49
2018-03-17T10:32:11.457Z,999.52
2018-03-17T10:33:11.433Z,999.47
2018-03-17T10:34:11.422Z,999.45
2018-03-17T10:35:11.427Z,999.5
2018-03-17T10:36:11.353Z,999.51
2018-03-17T10:37:11.326Z,999.41
2018-03-17T10:38:11.305Z,999.42
2018-03-17T10:39:11.279Z,999.34
2018-03-17T10:40:11.254Z,999.4
2018-03-17T10:41:11.230Z,999.4
2018-03-17T10:42:11.204Z,999.4
2018-03-17T10:43:11.186Z,999.28
2018-03-17T10:44:11.157Z,999.36
2018-03-17T10:45:11.130Z,999.33
2018-03-17T10:46:11.106Z,999.36
2018-03-17T10:47:11.081Z,999.32
2018-03-17T10:48:11.055Z,999.4
2018-03-17T10:49:11.032Z,999.35
2018-03-17T10:50:11.007Z,999.38
2018-03-17T10:51:10.984Z,999.35
2018-03-17T10:52:10.956Z,999.44
2018-03-17T10:53:10.931Z,999.45
2018-03-17T10:54:10.908Z,999.36
2018-03-17T10:55:10.883Z,999.39
2018-03-17T10:56:10.858Z,999.39
2018-03-17T10:57:10.833Z,999.48
2018-03-17T10:58:10.812Z,999.49
2018-03-17T10:59:10.784Z,999.51
2018-03-17T11:00:10.809Z,999.46
2018-03-17T11:01:10.735Z,999.42
2018-03-17T11:02:10.709Z,999.47
2018-03-17T11:03:10.685Z,999.28
2018-03-17T11:04:10.663Z,999.39
2018-03-17T11:05:10.637Z,999.46
2018-03-17T11:06:10.646Z,999.46
2018-03-17T11:07:10.585Z,999.43
2018-03-17T11:08:10.561Z,999.3
2018-03-17T11:09:10.539Z,999.29
2018-03-17T11:10:10.512Z,999.32
2018-03-17T11:11:10.539Z,999.39
2018-03-17T11:12:10.464Z,999.31
2018-03-17T11:13:10.439Z,999.37
2018-03-17T11:14:10.412Z,999.42
2018-03-17T11:15:10.386Z,999.38
2018-03-17T11:16:10.362Z,999.37
2018-03-17T11:17:10.338Z,999.29
2018-03-17T11:18:10.311Z,999.42
2018-03-17T11:19:10.289Z,999.42
2018-03-17T11:20:10.264Z,999.36
2018-03-17T11:21:10.238Z,999.36
2018-03-17T11:22:10.214Z,999.39
2018-03-17T11:23:10.191Z,999.28
2018-03-17T11:24:10.168Z,999.34
2018-03-17T11:25:10.140Z,999.35
2018-03-17T11:26:10.116Z,999.36
2018-03-17T11:27:10.095Z,999.35
2018-03-17T11:28:10.066Z,999.41
2018-03-17T11:29:10.042Z,999.26
2018-03-17T11:30:10.018Z,999.32
2018-03-17T11:31:10.145Z,999.37
2018-03-17T11:32:09.968Z,999.34
2018-03-17T11:33:09.945Z,999.35
2018-03-17T11:34:09.921Z,999.38
2018-03-17T11:35:09.922Z,999.43
2018-03-17T11:36:09.869Z,999.51
2018-03-17T11:37:09.851Z,999.35
2018-03-17T11:38:09.820Z,999.3
2018-03-17T11:39:09.796Z,999.4
2018-03-17T11:40:09.774Z,999.46
2018-03-17T11:41:09.767Z,999.34
2018-03-17T11:42:09.722Z,999.34
2018-03-17T11:43:09.696Z,999.25
2018-03-17T11:44:09.673Z,999.29
2018-03-17T11:45:09.648Z,999.26
2018-03-17T11:46:09.621Z,999.29
2018-03-17T11:47:09.596Z,999.43
2018-03-17T11:48:09.570Z,999.22
2018-03-17T11:49:09.549Z,999.24
2018-03-17T11:50:09.724Z,999.21
2018-03-17T11:51:09.496Z,999.31
2018-03-17T11:52:09.471Z,999.23
2018-03-17T11:53:09.449Z,999.26
2018-03-17T11:54:09.420Z,999.14
2018-03-17T11:55:09.398Z,999.2
2018-03-17T11:56:09.373Z,999.1
2018-03-17T11:57:09.348Z,999.23
2018-03-17T11:58:09.322Z,999.17
2018-03-17T11:59:09.297Z,999.19
2018-03-17T12:00:09.273Z,999.2
2018-03-17T12:01:09.251Z,999.19
2018-03-17T12:02:09.225Z,999.21
2018-03-17T12:03:09.200Z,999.23
2018-03-17T12:04:09.175Z,999.23
2018-03-17T12:05:09.151Z,999.25
2018-03-17T12:06:09.127Z,999.25
2018-03-17T12:07:09.102Z,999.23
2018-03-17T12:08:09.077Z,999.24
2018-03-17T12:09:09.053Z,999.19
2018-03-17T12:10:09.050Z,999.16
2018-03-17T12:11:09.006Z,999.17
2018-03-17T12:12:08.979Z,999.21
2018-03-17T12:13:08.954Z,999.18
2018-03-17T12:14:08.930Z,999.17
2018-03-17T12:15:08.906Z,999.14
2018-03-17T12:16:08.880Z,999.21
2018-03-17T12:17:08.856Z,999.17
2018-03-17T12:18:08.836Z,999.15
2018-03-17T12:19:08.807Z,999.22
2018-03-17T12:20:08.784Z,999.2
2018-03-17T12:21:08.758Z,999.23
2018-03-17T12:22:08.732Z,999.23
2018-03-17T12:23:08.707Z,999.21
2018-03-17T12:24:08.682Z,999.16
2018-03-17T12:25:08.660Z,999.09
2018-03-17T12:26:08.635Z,999.15
2018-03-17T12:27:08.609Z,998.92
2018-03-17T12:28:08.585Z,999.12
2018-03-17T12:29:08.560Z,999.02
2018-03-17T12:30:08.536Z,999.02
2018-03-17T12:31:08.518Z,999.03